Elwood, New York
Current Conditions -  °F | °C
As of 2:53 PM on Thursday 20 Nov 2014 (Local Time) from KFRG Reporting Station
Clear Clear  
Wind Chill: 39°   Ceiling: Unl
Heat Index: 46°   Visibility: 10mi
Dew Point: 23°   Wind: 18mph
Humidity: 40%   Direction: 250°WSW
Pressure: 29.84"   Gusts: 25mph
Location:  40.85°N, 73.33°W
Report Text: KFRG 201953Z 25016G22KT 10SM CLR 08/M05 A2984 RMK AO2 SLPNO T00781050
Loading
Personal Weather Stations






























Interactive Weather Map New forecast layout! Learn more

10-Day Weather Forecast

Advertisements
Track Severe Weather on mobile